createdAt,value
2022-10-01T00:01:15.052Z,17.38
2022-10-01T00:03:42.661Z,12.80
2022-10-01T00:06:18.513Z,15.90
2022-10-01T00:08:48.837Z,16.52
2022-10-01T00:11:18.587Z,14.88
2022-10-01T00:13:46.148Z,16.30
2022-10-01T00:16:15.988Z,13.05
2022-10-01T00:18:45.694Z,14.90
2022-10-01T00:21:18.328Z,14.55
2022-10-01T00:23:46.112Z,16.20
2022-10-01T00:26:14.776Z,15.40
2022-10-01T00:28:43.282Z,18.08
2022-10-01T00:31:11.426Z,18.55
2022-10-01T00:33:38.546Z,15.10
2022-10-01T00:36:07.056Z,16.17
2022-10-01T00:38:34.341Z,14.23
2022-10-01T00:41:01.877Z,14.80
2022-10-01T00:43:37.828Z,18.10
2022-10-01T00:46:13.550Z,15.10
2022-10-01T00:48:48.117Z,13.70
2022-10-01T00:51:15.132Z,14.38
2022-10-01T00:53:43.425Z,12.93
2022-10-01T00:56:10.175Z,11.60
2022-10-01T00:58:36.904Z,16.25
2022-10-01T01:01:04.135Z,13.45
2022-10-01T01:03:30.809Z,15.43
2022-10-01T01:05:57.456Z,14.73
2022-10-01T01:08:24.255Z,11.52
2022-10-01T01:11:16.451Z,11.18
2022-10-01T01:13:50.168Z,9.13
2022-10-01T01:16:39.029Z,9.73
2022-10-01T01:19:27.271Z,10.57
2022-10-01T01:22:00.247Z,9.57
2022-10-01T01:24:41.433Z,10.80
2022-10-01T01:27:22.994Z,10.50
2022-10-01T01:30:04.236Z,10.32
2022-10-01T01:33:03.022Z,7.22
2022-10-01T01:35:34.772Z,11.32
2022-10-01T01:38:06.532Z,9.05
2022-10-01T01:40:36.659Z,10.13
2022-10-01T01:43:07.090Z,9.15
2022-10-01T01:45:36.070Z,9.73
2022-10-01T01:48:04.189Z,7.93
2022-10-01T01:50:42.152Z,7.78
2022-10-01T01:53:09.235Z,10.52
2022-10-01T01:55:37.104Z,8.52
2022-10-01T01:58:03.884Z,8.48
2022-10-01T02:00:30.535Z,8.32
2022-10-01T02:02:57.988Z,8.05
2022-10-01T02:05:31.500Z,7.65
2022-10-01T02:08:19.823Z,7.55
2022-10-01T02:11:25.842Z,5.97
2022-10-01T02:14:14.787Z,9.13
2022-10-01T02:16:55.971Z,6.60
2022-10-01T02:19:33.636Z,7.30
2022-10-01T02:22:10.764Z,6.55
2022-10-01T02:24:52.196Z,7.70
2022-10-01T02:27:33.212Z,8.32
2022-10-01T02:30:04.338Z,5.38
2022-10-01T02:32:32.033Z,4.13
2022-10-01T02:35:00.464Z,5.93
2022-10-01T02:37:28.191Z,9.80
2022-10-01T02:39:57.349Z,5.20
2022-10-01T02:42:27.428Z,4.70
2022-10-01T02:44:56.692Z,5.50
2022-10-01T02:47:28.180Z,2.97
2022-10-01T02:49:54.965Z,3.73
2022-10-01T02:52:24.415Z,3.97
2022-10-01T02:55:03.381Z,3.10
2022-10-01T02:57:30.353Z,3.83
2022-10-01T03:00:03.112Z,4.38
2022-10-01T03:02:31.596Z,2.63
2022-10-01T03:04:59.007Z,4.13
2022-10-01T03:07:28.161Z,2.83
2022-10-01T03:09:54.877Z,3.45
2022-10-01T03:12:22.450Z,3.40
2022-10-01T03:14:49.509Z,4.60
2022-10-01T03:17:17.162Z,3.85
2022-10-01T03:19:43.895Z,2.78
2022-10-01T03:22:14.166Z,2.97
2022-10-01T03:24:40.937Z,2.25
2022-10-01T03:27:07.553Z,3.72
2022-10-01T03:29:34.226Z,1.83
2022-10-01T03:32:01.102Z,2.13
2022-10-01T03:34:27.855Z,5.32
2022-10-01T03:36:54.528Z,3.97
2022-10-01T03:39:21.176Z,4.32
2022-10-01T03:41:48.020Z,3.17
2022-10-01T03:44:14.675Z,4.57
2022-10-01T03:46:41.502Z,4.43
2022-10-01T03:49:08.185Z,4.10
2022-10-01T03:51:37.359Z,3.72
2022-10-01T03:54:05.950Z,4.05
2022-10-01T03:56:33.361Z,5.45
2022-10-01T03:59:00.094Z,3.67
2022-10-01T04:01:27.126Z,2.88
2022-10-01T04:03:54.216Z,3.92
2022-10-01T04:06:20.873Z,5.93
2022-10-01T04:08:47.607Z,5.45
2022-10-01T04:11:14.526Z,4.50
2022-10-01T04:13:41.321Z,5.07
2022-10-01T04:16:08.096Z,4.38
2022-10-01T04:18:35.200Z,4.88
2022-10-01T04:21:01.889Z,3.92
2022-10-01T04:23:28.541Z,3.92
2022-10-01T04:25:58.256Z,5.32
2022-10-01T04:28:24.953Z,3.58
2022-10-01T04:31:11.700Z,4.38
2022-10-01T04:33:38.401Z,4.20
2022-10-01T04:36:05.130Z,4.85
2022-10-01T04:38:31.940Z,5.03
2022-10-01T04:40:58.839Z,5.68
2022-10-01T04:43:25.485Z,5.30
2022-10-01T04:45:52.139Z,5.85
2022-10-01T04:48:18.935Z,7.55
2022-10-01T04:50:45.835Z,7.63
2022-10-01T04:53:12.590Z,5.90
2022-10-01T04:55:39.991Z,5.65
2022-10-01T04:58:06.696Z,7.75
2022-10-01T05:00:33.811Z,6.68
2022-10-01T05:03:00.562Z,6.68
2022-10-01T05:05:29.088Z,9.45
2022-10-01T05:07:55.876Z,6.30
2022-10-01T05:10:23.262Z,6.10
2022-10-01T05:12:51.537Z,6.38
2022-10-01T05:15:19.175Z,7.25
2022-10-01T05:17:47.040Z,6.63
2022-10-01T05:20:22.102Z,8.68
2022-10-01T05:22:52.088Z,7.10
2022-10-01T05:25:19.616Z,11.35
2022-10-01T05:27:46.743Z,6.22
2022-10-01T05:30:18.559Z,7.97
2022-10-01T05:32:55.159Z,7.80
2022-10-01T05:35:21.831Z,9.20
2022-10-01T05:37:52.081Z,6.88
2022-10-01T05:40:19.928Z,8.63
2022-10-01T05:42:47.085Z,10.10
2022-10-01T05:45:13.946Z,7.38
2022-10-01T05:47:42.281Z,8.82
2022-10-01T05:50:09.687Z,8.32
2022-10-01T05:52:36.464Z,9.02
2022-10-01T05:55:03.361Z,8.75
2022-10-01T05:57:31.092Z,8.50
2022-10-01T05:59:57.905Z,7.88
2022-10-01T06:02:24.722Z,9.52
2022-10-01T06:04:51.530Z,11.02
2022-10-01T06:07:18.236Z,9.70
2022-10-01T06:09:45.168Z,10.68
2022-10-01T06:12:14.429Z,9.07
2022-10-01T06:14:43.074Z,12.95
2022-10-01T06:17:09.725Z,9.32
2022-10-01T06:19:36.359Z,10.82
2022-10-01T06:22:03.101Z,9.18
2022-10-01T06:24:31.003Z,9.95
2022-10-01T06:26:57.769Z,10.38
2022-10-01T06:29:24.426Z,8.68
2022-10-01T06:31:51.746Z,9.82
2022-10-01T06:34:18.469Z,10.40
2022-10-01T06:36:45.145Z,9.57
2022-10-01T06:39:11.821Z,10.75
2022-10-01T06:41:38.492Z,9.77
2022-10-01T06:44:09.189Z,11.00
2022-10-01T06:46:36.523Z,7.95
2022-10-01T06:49:03.210Z,10.93
2022-10-01T06:51:48.382Z,12.88
2022-10-01T06:54:18.206Z,11.68
2022-10-01T06:56:44.951Z,7.47
2022-10-01T06:59:11.600Z,9.98
2022-10-01T07:01:38.820Z,8.88
2022-10-01T07:04:05.805Z,11.30
2022-10-01T07:06:32.525Z,12.55
2022-10-01T07:08:59.962Z,12.82
2022-10-01T07:11:27.114Z,10.40
2022-10-01T07:13:54.785Z,13.13
2022-10-01T07:16:21.669Z,11.65
2022-10-01T07:18:48.500Z,9.20
2022-10-01T07:21:15.181Z,9.07
2022-10-01T07:23:41.880Z,9.18
2022-10-01T07:26:09.103Z,8.82
2022-10-01T07:28:35.809Z,8.77
2022-10-01T07:31:06.615Z,10.95
2022-10-01T07:33:33.527Z,9.45
2022-10-01T07:36:04.691Z,12.13
2022-10-01T07:38:33.447Z,7.72
2022-10-01T07:41:02.772Z,12.20
2022-10-01T07:43:31.244Z,8.57
2022-10-01T07:46:00.034Z,12.52
2022-10-01T07:48:27.633Z,11.52
2022-10-01T07:50:54.562Z,8.43
2022-10-01T07:53:23.339Z,8.30
2022-10-01T07:55:50.031Z,10.02
2022-10-01T07:58:16.713Z,11.60
2022-10-01T08:00:43.483Z,11.68
2022-10-01T08:03:12.093Z,10.70
2022-10-01T08:05:41.039Z,12.02
2022-10-01T08:08:08.850Z,12.50
2022-10-01T08:10:37.809Z,10.05
2022-10-01T08:13:14.456Z,10.48
2022-10-01T08:15:47.289Z,11.20
2022-10-01T08:18:14.279Z,9.85
2022-10-01T08:20:41.015Z,11.38
2022-10-01T08:23:10.335Z,8.55
2022-10-01T08:25:37.782Z,9.32
2022-10-01T08:28:05.092Z,14.15
2022-10-01T08:30:31.919Z,8.55
2022-10-01T08:33:00.827Z,12.45
2022-10-01T08:35:28.694Z,9.60
2022-10-01T08:37:56.568Z,10.88
2022-10-01T08:40:24.388Z,11.20
2022-10-01T08:43:06.277Z,9.32
2022-10-01T08:45:41.768Z,13.35
2022-10-01T08:48:25.361Z,9.68
2022-10-01T08:51:05.268Z,8.32
2022-10-01T08:53:54.398Z,6.78
2022-10-01T08:56:41.096Z,5.63
2022-10-01T08:59:18.997Z,5.00
2022-10-01T09:01:45.766Z,5.35
2022-10-01T09:04:12.520Z,7.75
2022-10-01T09:06:39.340Z,7.07
2022-10-01T09:09:37.956Z,8.35
2022-10-01T09:12:19.720Z,7.32
2022-10-01T09:15:15.572Z,7.67
2022-10-01T09:17:47.660Z,8.05
2022-10-01T09:20:34.977Z,8.50
2022-10-01T09:23:26.680Z,9.05
2022-10-01T09:25:53.749Z,10.88
2022-10-01T09:28:32.045Z,6.35
2022-10-01T09:31:20.836Z,8.48
2022-10-01T09:34:13.211Z,7.13
2022-10-01T09:36:54.309Z,9.60
2022-10-01T09:39:27.819Z,8.80
2022-10-01T09:41:54.779Z,6.90
2022-10-01T09:44:30.534Z,11.32
2022-10-01T09:46:57.790Z,5.43
2022-10-01T09:49:39.467Z,8.73
2022-10-01T09:52:18.304Z,12.13
2022-10-01T09:55:12.951Z,10.90
2022-10-01T09:57:47.561Z,13.80
2022-10-01T10:00:19.564Z,10.13
2022-10-01T10:02:49.666Z,12.15
2022-10-01T10:05:28.723Z,9.23
2022-10-01T10:08:04.097Z,12.27
2022-10-01T10:10:36.844Z,12.25
2022-10-01T10:13:10.775Z,9.23
2022-10-01T10:15:52.740Z,9.23
2022-10-01T10:18:34.824Z,12.10
2022-10-01T10:21:16.137Z,10.82
2022-10-01T10:24:00.933Z,14.60
2022-10-01T10:26:39.958Z,8.38
2022-10-01T10:29:24.152Z,17.30
2022-10-01T10:31:51.552Z,8.20
2022-10-01T10:34:22.742Z,9.43
2022-10-01T10:36:56.068Z,8.32
2022-10-01T10:39:32.565Z,8.73
2022-10-01T10:42:01.064Z,12.70
2022-10-01T10:44:36.154Z,7.15
2022-10-01T10:47:07.254Z,8.45
2022-10-01T10:49:43.847Z,11.07
2022-10-01T10:52:21.324Z,6.57
2022-10-01T10:54:49.986Z,8.48
2022-10-01T10:57:29.272Z,9.70
2022-10-01T10:59:56.112Z,9.82
2022-10-01T11:02:25.333Z,10.65
2022-10-01T11:04:54.560Z,21.05
2022-10-01T11:07:24.240Z,7.53
2022-10-01T11:10:38.879Z,7.35
2022-10-01T11:13:20.766Z,9.10
2022-10-01T11:16:20.438Z,10.75
2022-10-01T11:19:11.772Z,10.25
2022-10-01T11:22:46.128Z,5.95
2022-10-01T11:25:31.347Z,8.75
2022-10-01T11:28:15.255Z,6.63
2022-10-01T11:31:18.226Z,10.18
2022-10-01T11:34:17.244Z,8.68
2022-10-01T11:36:55.840Z,8.48
2022-10-01T11:39:25.951Z,10.32
2022-10-01T11:42:02.358Z,10.50
2022-10-01T11:44:51.004Z,11.07
2022-10-01T11:47:24.100Z,10.90
2022-10-01T11:49:58.023Z,8.32
2022-10-01T11:52:40.544Z,11.20
2022-10-01T11:58:45.365Z,12.23
2022-10-01T12:01:16.128Z,18.07
2022-10-01T12:04:08.943Z,17.55
2022-10-01T12:06:52.168Z,9.25
2022-10-01T12:09:39.188Z,12.23
2022-10-01T12:12:17.340Z,9.63
2022-10-01T12:15:06.910Z,11.05
2022-10-01T12:17:45.146Z,9.48
2022-10-01T12:20:20.597Z,8.38
2022-10-01T12:22:48.453Z,14.05
2022-10-01T12:25:15.223Z,10.90
2022-10-01T12:27:48.085Z,10.88
2022-10-01T12:30:21.965Z,14.27
2022-10-01T12:33:13.075Z,9.43
2022-10-01T12:35:39.688Z,10.07
2022-10-01T12:38:37.902Z,14.77
2022-10-01T12:41:39.840Z,12.45
2022-10-01T12:44:18.010Z,12.27
2022-10-01T12:47:14.805Z,9.75
2022-10-01T12:49:57.439Z,7.20
2022-10-01T12:52:48.280Z,17.42
2022-10-01T12:55:42.767Z,9.05
2022-10-01T12:58:38.874Z,9.63
2022-10-01T13:01:34.284Z,9.05
2022-10-01T13:04:12.265Z,8.38
2022-10-01T13:07:04.116Z,7.95
2022-10-01T13:09:33.603Z,8.90
2022-10-01T13:12:31.635Z,11.15
2022-10-01T13:14:59.455Z,9.18
2022-10-01T13:17:49.407Z,11.30
2022-10-01T13:20:35.049Z,13.27
2022-10-01T13:23:09.041Z,9.60
2022-10-01T13:26:01.505Z,14.73
2022-10-01T13:29:09.347Z,12.20
2022-10-01T13:31:55.082Z,9.77
2022-10-01T13:34:38.648Z,8.40
2022-10-01T13:37:12.426Z,7.95
2022-10-01T13:39:42.092Z,20.55
2022-10-01T13:42:23.052Z,6.75
2022-10-01T13:44:55.559Z,9.05
2022-10-01T13:47:23.624Z,9.88
2022-10-01T13:49:56.117Z,14.90
2022-10-01T13:52:23.327Z,12.80
2022-10-01T13:54:52.477Z,11.73
2022-10-01T13:57:38.785Z,12.43
2022-10-01T14:00:11.183Z,7.43
2022-10-01T14:02:41.715Z,6.10
2022-10-01T14:05:36.172Z,8.57
2022-10-01T14:08:24.825Z,10.13
2022-10-01T14:11:34.689Z,5.68
2022-10-01T14:14:30.923Z,9.93
2022-10-01T14:16:58.950Z,8.57
2022-10-01T14:19:27.360Z,6.95
2022-10-01T14:22:10.929Z,8.77
2022-10-01T14:24:57.459Z,18.75
2022-10-01T14:27:30.075Z,9.95
2022-10-01T14:30:07.332Z,10.82
2022-10-01T14:32:42.080Z,8.65
2022-10-01T14:35:27.475Z,5.47
2022-10-01T14:38:00.317Z,7.93
2022-10-01T14:40:36.569Z,10.88
2022-10-01T14:43:17.139Z,9.15
2022-10-01T14:46:13.439Z,11.68
2022-10-01T14:48:41.191Z,6.00
2022-10-01T14:51:27.332Z,9.00
2022-10-01T14:53:56.003Z,10.80
2022-10-01T14:56:23.432Z,6.50
2022-10-01T14:59:02.691Z,8.35
2022-10-01T15:01:29.664Z,8.05
2022-10-01T15:03:56.437Z,11.07
2022-10-01T15:06:27.957Z,6.15
2022-10-01T15:08:56.105Z,6.80
2022-10-01T15:11:26.183Z,10.95
2022-10-01T15:14:01.929Z,5.70
2022-10-01T15:16:29.655Z,13.02
2022-10-01T15:19:02.965Z,13.27
2022-10-01T15:21:35.851Z,8.73
2022-10-01T15:24:04.896Z,6.85
2022-10-01T15:26:32.685Z,8.73
2022-10-01T15:29:14.272Z,13.55
2022-10-01T15:31:41.511Z,15.45
2022-10-01T15:34:12.640Z,14.50
2022-10-01T15:36:40.938Z,12.95
2022-10-01T15:39:31.315Z,8.55
2022-10-01T15:41:58.847Z,11.90
2022-10-01T15:44:45.863Z,5.90
2022-10-01T15:47:15.562Z,10.13
2022-10-01T15:50:00.503Z,10.05
2022-10-01T15:52:46.944Z,10.45
2022-10-01T15:55:15.507Z,9.85
2022-10-01T15:57:42.806Z,10.30
2022-10-01T16:00:22.215Z,18.17
2022-10-01T16:02:49.250Z,9.38
2022-10-01T16:05:20.211Z,9.80
2022-10-01T16:07:49.547Z,7.47
2022-10-01T16:10:32.846Z,12.52
2022-10-01T16:12:59.956Z,7.38
2022-10-01T16:15:30.406Z,9.23
2022-10-01T16:17:59.442Z,15.25
2022-10-01T16:20:31.635Z,9.43
2022-10-01T16:23:36.511Z,8.13
2022-10-01T16:26:06.056Z,11.52
2022-10-01T16:28:34.924Z,10.52
2022-10-01T16:31:03.675Z,10.57
2022-10-01T16:33:30.422Z,8.18
2022-10-01T16:36:09.473Z,10.20
2022-10-01T16:38:36.227Z,7.68
2022-10-01T16:41:05.280Z,6.43
2022-10-01T16:43:32.203Z,6.25
2022-10-01T16:45:59.434Z,3.47
2022-10-01T16:48:26.762Z,10.38
2022-10-01T16:50:59.003Z,10.73
2022-10-01T16:53:27.276Z,12.57
